createdAt,value
2023-03-29T00:25:12.739Z,101813.00
2023-03-29T00:30:16.539Z,101811.00
2023-03-29T00:35:19.654Z,101807.00
2023-03-29T00:40:23.781Z,101806.00
2023-03-29T00:45:28.357Z,101795.00
2023-03-29T00:50:37.070Z,101805.00
2023-03-29T00:55:48.799Z,101800.00
2023-03-29T01:00:59.335Z,101799.00
2023-03-29T01:06:07.265Z,101785.00
2023-03-29T01:11:18.361Z,101798.00
2023-03-29T01:16:23.278Z,101799.00
2023-03-29T01:21:32.988Z,101790.00
2023-03-29T01:26:50.910Z,101786.00
2023-03-29T01:32:00.698Z,101794.00
2023-03-29T01:37:11.061Z,101793.00
2023-03-29T01:42:41.509Z,101793.00
2023-03-29T01:47:59.070Z,101792.00
2023-03-29T01:53:10.116Z,101794.00
2023-03-29T01:58:16.472Z,101794.00
2023-03-29T02:03:24.703Z,101795.00
2023-03-29T02:08:29.832Z,101807.00
2023-03-29T02:13:33.630Z,101801.00
2023-03-29T02:18:38.559Z,101785.00
2023-03-29T02:23:45.518Z,101793.00
2023-03-29T02:28:48.877Z,101790.00
2023-03-29T02:33:58.661Z,101795.00
2023-03-29T02:39:04.616Z,101790.00
2023-03-29T02:44:13.141Z,101788.00
2023-03-29T02:49:18.313Z,101791.00
2023-03-29T02:54:25.402Z,101782.00
2023-03-29T02:59:29.776Z,101777.00
2023-03-29T03:04:33.834Z,101775.00
2023-03-29T03:09:37.327Z,101776.00
2023-03-29T03:14:40.079Z,101771.00
2023-03-29T03:19:44.185Z,101766.00
2023-03-29T03:24:46.759Z,101771.00
2023-03-29T03:29:49.693Z,101766.00
2023-03-29T03:34:53.757Z,101769.00
2023-03-29T03:40:01.610Z,101779.00
2023-03-29T03:45:07.914Z,101781.00
2023-03-29T03:50:20.883Z,101778.00
2023-03-29T03:55:23.966Z,101786.00
2023-03-29T04:00:44.781Z,101778.00
2023-03-29T04:06:12.726Z,101785.00
2023-03-29T04:11:47.510Z,101798.00
2023-03-29T04:16:50.116Z,101789.00
2023-03-29T04:22:12.435Z,101797.00
2023-03-29T04:27:15.028Z,101792.00
2023-03-29T04:32:17.734Z,101787.00
2023-03-29T04:37:33.845Z,101797.00
2023-03-29T04:42:37.608Z,101805.00
2023-03-29T04:47:42.740Z,101794.00
2023-03-29T04:52:52.593Z,101798.00
2023-03-29T04:57:56.646Z,101790.00
2023-03-29T05:03:06.677Z,101777.00
2023-03-29T05:08:14.923Z,101783.00
2023-03-29T05:13:40.252Z,101787.00
2023-03-29T05:18:42.962Z,101790.00
2023-03-29T05:23:48.280Z,101778.00
2023-03-29T05:29:23.727Z,101792.00
2023-03-29T05:34:34.885Z,101780.00
2023-03-29T05:39:40.216Z,101781.00
2023-03-29T05:44:43.486Z,101782.00
2023-03-29T05:49:53.995Z,101787.00
2023-03-29T05:55:02.312Z,101780.00
2023-03-29T06:00:08.017Z,101772.00
2023-03-29T06:05:22.449Z,101779.00
2023-03-29T06:10:48.167Z,101776.00
2023-03-29T06:16:09.699Z,101779.00
2023-03-29T06:21:13.648Z,101779.00
2023-03-29T06:26:18.208Z,101773.00
2023-03-29T06:31:22.626Z,101764.00
2023-03-29T06:36:29.702Z,101764.00
2023-03-29T06:41:34.004Z,101767.00
2023-03-29T06:46:50.151Z,101758.00
2023-03-29T06:51:56.388Z,101756.00
2023-03-29T06:57:03.072Z,101757.00
2023-03-29T07:02:10.218Z,101761.00
2023-03-29T07:07:28.329Z,101756.00
2023-03-29T07:12:45.780Z,101766.00
2023-03-29T07:17:54.330Z,101754.00
2023-03-29T07:22:58.103Z,101765.00
2023-03-29T07:28:03.203Z,101748.00
2023-03-29T07:33:05.942Z,101764.00
2023-03-29T07:38:15.667Z,101758.00
2023-03-29T07:43:26.173Z,101752.00
2023-03-29T07:48:29.708Z,101757.00
2023-03-29T07:53:38.330Z,101745.00
2023-03-29T07:58:49.597Z,101753.00
2023-03-29T08:03:54.228Z,101743.00
2023-03-29T08:09:06.695Z,101729.00
2023-03-29T08:14:11.138Z,101730.00
2023-03-29T08:19:27.660Z,101731.00
2023-03-29T08:24:42.620Z,101731.00
2023-03-29T08:29:50.287Z,101730.00
2023-03-29T08:34:55.917Z,101715.00
2023-03-29T08:40:14.215Z,101709.00
2023-03-29T08:45:51.006Z,101701.00
2023-03-29T08:51:03.365Z,101699.00
2023-03-29T08:56:19.570Z,101705.00
2023-03-29T09:02:13.456Z,101690.00
2023-03-29T09:07:16.998Z,101697.00
2023-03-29T09:12:39.911Z,101693.00
2023-03-29T09:17:59.428Z,101687.00
2023-03-29T09:23:26.430Z,101685.00
2023-03-29T09:29:01.812Z,101672.00
2023-03-29T09:34:23.881Z,101678.00
2023-03-29T09:39:36.554Z,101677.00
2023-03-29T09:44:52.014Z,101665.00
2023-03-29T09:50:16.643Z,101669.00
2023-03-29T09:55:35.553Z,101663.00
2023-03-29T10:00:46.797Z,101664.00
2023-03-29T10:05:57.035Z,101647.00
2023-03-29T10:11:08.969Z,101639.00
2023-03-29T10:16:21.576Z,101647.00
2023-03-29T10:21:31.450Z,101648.00
2023-03-29T10:26:38.593Z,101637.00
2023-03-29T10:31:43.497Z,101637.00
2023-03-29T10:36:58.323Z,101639.00
2023-03-29T10:42:06.239Z,101619.00
2023-03-29T10:47:16.456Z,101624.00
2023-03-29T10:52:22.313Z,101616.00
2023-03-29T10:57:43.687Z,101599.00
2023-03-29T11:03:24.735Z,101596.00
2023-03-29T11:08:56.994Z,101583.00
2023-03-29T11:14:11.380Z,101562.00
2023-03-29T11:19:54.633Z,101574.00
2023-03-29T11:25:23.709Z,101573.00
2023-03-29T11:30:37.838Z,101560.00
2023-03-29T11:35:52.313Z,101562.00
2023-03-29T11:41:08.397Z,101554.00
2023-03-29T11:46:19.027Z,101549.00
2023-03-29T11:51:29.011Z,101540.00
2023-03-29T11:56:40.548Z,101534.00
2023-03-29T12:01:52.879Z,101522.00
2023-03-29T12:07:11.687Z,101521.00
2023-03-29T12:12:25.920Z,101514.00
2023-03-29T12:17:37.410Z,101498.00
2023-03-29T12:22:41.184Z,101487.00
2023-03-29T12:28:02.774Z,101476.00
2023-03-29T12:33:41.870Z,101477.00
2023-03-29T12:38:56.722Z,101487.00
2023-03-29T12:44:23.934Z,101485.00
2023-03-29T12:49:38.939Z,101478.00
2023-03-29T12:54:41.456Z,101471.00
2023-03-29T12:59:48.710Z,101473.00
2023-03-29T13:04:57.668Z,101460.00
2023-03-29T13:10:02.505Z,101461.00
2023-03-29T13:15:23.301Z,101463.00
2023-03-29T13:20:45.873Z,101455.00
2023-03-29T13:26:19.499Z,101450.00
2023-03-29T13:31:35.259Z,101440.00
2023-03-29T13:37:01.494Z,101445.00
2023-03-29T13:42:19.284Z,101434.00
2023-03-29T13:47:58.237Z,101427.00
2023-03-29T13:53:15.812Z,101421.00
2023-03-29T13:58:32.355Z,101424.00
2023-03-29T14:03:44.245Z,101413.00
2023-03-29T14:08:49.086Z,101407.00
2023-03-29T14:13:57.281Z,101412.00
2023-03-29T14:19:04.858Z,101402.00
2023-03-29T14:24:13.192Z,101405.00
2023-03-29T14:29:16.050Z,101395.00
2023-03-29T14:34:20.339Z,101396.00
2023-03-29T14:39:23.488Z,101389.00
2023-03-29T14:44:30.794Z,101388.00
2023-03-29T14:49:34.924Z,101379.00
2023-03-29T14:54:48.144Z,101374.00
2023-03-29T14:59:54.952Z,101363.00
2023-03-29T15:05:02.358Z,101352.00
2023-03-29T15:10:06.582Z,101364.00
2023-03-29T15:15:12.805Z,101359.00
2023-03-29T15:20:24.410Z,101357.00
2023-03-29T15:25:32.597Z,101350.00
2023-03-29T15:30:39.486Z,101333.00
2023-03-29T15:35:49.157Z,101332.00
2023-03-29T15:40:51.588Z,101333.00
2023-03-29T15:45:54.097Z,101333.00
2023-03-29T15:51:01.508Z,101324.00
2023-03-29T15:56:08.633Z,101334.00
2023-03-29T16:01:22.867Z,101323.00
2023-03-29T16:06:26.968Z,101316.00
2023-03-29T16:11:29.679Z,101308.00
2023-03-29T16:16:32.060Z,101306.00
2023-03-29T16:21:36.230Z,101317.00
2023-03-29T16:26:38.671Z,101304.00
2023-03-29T16:31:44.105Z,101307.00
2023-03-29T16:36:49.461Z,101292.00
2023-03-29T16:41:52.180Z,101290.00
2023-03-29T16:46:54.864Z,101295.00
2023-03-29T16:51:58.950Z,101289.00
2023-03-29T16:57:04.340Z,101282.00
2023-03-29T17:02:06.756Z,101283.00
2023-03-29T17:07:10.617Z,101277.00
2023-03-29T17:12:15.919Z,101276.00
2023-03-29T17:17:19.010Z,101284.00
2023-03-29T17:22:23.302Z,101280.00
2023-03-29T17:27:28.691Z,101270.00
2023-03-29T17:32:31.198Z,101264.00
2023-03-29T17:37:35.601Z,101276.00
2023-03-29T17:42:41.361Z,101267.00
2023-03-29T17:47:44.085Z,101271.00
2023-03-29T17:52:48.518Z,101274.00
2023-03-29T17:57:53.703Z,101276.00
2023-03-29T18:02:56.425Z,101285.00
2023-03-29T18:08:00.602Z,101282.00
2023-03-29T18:13:03.716Z,101278.00
2023-03-29T18:18:06.622Z,101283.00
2023-03-29T18:23:10.713Z,101277.00
2023-03-29T18:28:13.449Z,101276.00
2023-03-29T18:33:18.966Z,101274.00
2023-03-29T18:38:23.139Z,101269.00
2023-03-29T18:43:25.585Z,101264.00
2023-03-29T18:48:28.186Z,101269.00
2023-03-29T18:53:32.136Z,101267.00
2023-03-29T18:58:35.617Z,101264.00
2023-03-29T19:03:38.365Z,101254.00
2023-03-29T19:08:42.693Z,101251.00
2023-03-29T19:13:45.130Z,101258.00
2023-03-29T19:18:47.593Z,101252.00
2023-03-29T19:23:52.040Z,101241.00
2023-03-29T19:28:54.499Z,101241.00
2023-03-29T19:33:56.950Z,101235.00
2023-03-29T19:39:00.877Z,101225.00
2023-03-29T19:44:03.937Z,101233.00
2023-03-29T19:49:06.904Z,101241.00
2023-03-29T19:54:11.814Z,101231.00
2023-03-29T19:59:14.294Z,101229.00
2023-03-29T20:04:17.357Z,101212.00
2023-03-29T20:09:21.377Z,101224.00
2023-03-29T20:14:23.869Z,101218.00
2023-03-29T20:19:26.483Z,101200.00
2023-03-29T20:24:30.700Z,101197.00
2023-03-29T20:29:33.178Z,101201.00
2023-03-29T20:34:36.051Z,101182.00
2023-03-29T20:39:40.086Z,101182.00
2023-03-29T20:44:42.638Z,101168.00
2023-03-29T20:49:47.782Z,101173.00
2023-03-29T20:54:52.147Z,101172.00
2023-03-29T20:59:54.522Z,101171.00
2023-03-29T21:04:56.891Z,101174.00
2023-03-29T21:10:00.796Z,101176.00
2023-03-29T21:15:03.718Z,101166.00
2023-03-29T21:20:08.812Z,101164.00
2023-03-29T21:25:13.952Z,101150.00
2023-03-29T21:30:16.643Z,101153.00
2023-03-29T21:35:22.144Z,101147.00
2023-03-29T21:40:25.997Z,101138.00
2023-03-29T21:45:28.553Z,101147.00
2023-03-29T21:50:34.252Z,101131.00
2023-03-29T21:55:38.104Z,101133.00
2023-03-29T22:00:41.015Z,101136.00
2023-03-29T22:05:43.730Z,101128.00
2023-03-29T22:10:48.084Z,101126.00
2023-03-29T22:15:56.454Z,101127.00
2023-03-29T22:20:58.868Z,101122.00
2023-03-29T22:26:06.566Z,101111.00
2023-03-29T22:31:12.121Z,101111.00
2023-03-29T22:36:17.743Z,101115.00
2023-03-29T22:41:24.539Z,101109.00
2023-03-29T22:46:27.785Z,101108.00
2023-03-29T22:51:30.630Z,101102.00
2023-03-29T22:56:34.964Z,101102.00
2023-03-29T23:01:37.663Z,101107.00
2023-03-29T23:06:40.514Z,101103.00
2023-03-29T23:11:44.336Z,101092.00
2023-03-29T23:16:46.880Z,101096.00
2023-03-29T23:21:49.422Z,101076.00
2023-03-29T23:26:53.333Z,101087.00
2023-03-29T23:31:55.982Z,101070.00
2023-03-29T23:36:58.768Z,101065.00
2023-03-29T23:42:03.102Z,101063.00
2023-03-29T23:47:08.474Z,101054.00
2023-03-29T23:52:11.143Z,101059.00
2023-03-29T23:57:15.001Z,101061.00
